createdAt,value
2022-11-30T00:01:16.712Z,6.70
2022-11-30T00:03:44.257Z,5.82
2022-11-30T00:06:14.361Z,5.72
2022-11-30T00:08:41.900Z,6.70
2022-11-30T00:11:13.604Z,5.82
2022-11-30T00:13:42.112Z,6.30
2022-11-30T00:16:09.518Z,5.70
2022-11-30T00:18:37.651Z,5.32
2022-11-30T00:21:08.960Z,5.88
2022-11-30T00:23:40.896Z,6.00
2022-11-30T00:26:11.072Z,6.25
2022-11-30T00:28:39.654Z,10.68
2022-11-30T00:31:13.642Z,8.93
2022-11-30T00:33:41.303Z,12.00
2022-11-30T00:36:21.360Z,5.45
2022-11-30T00:38:49.688Z,6.03
2022-11-30T00:41:18.183Z,5.22
2022-11-30T00:43:45.988Z,5.50
2022-11-30T00:46:13.546Z,6.05
2022-11-30T00:48:41.344Z,7.20
2022-11-30T00:51:10.058Z,5.65
2022-11-30T00:53:37.840Z,5.70
2022-11-30T00:56:05.277Z,5.55
2022-11-30T00:58:32.647Z,5.90
2022-11-30T01:01:00.399Z,6.00
2022-11-30T01:03:27.651Z,6.18
2022-11-30T01:05:54.878Z,7.60
2022-11-30T01:08:22.091Z,8.45
2022-11-30T01:10:53.546Z,9.70
2022-11-30T01:13:20.805Z,8.43
2022-11-30T01:15:48.103Z,8.18
2022-11-30T01:18:15.391Z,7.95
2022-11-30T01:20:43.555Z,4.85
2022-11-30T01:23:11.543Z,6.05
2022-11-30T01:25:39.380Z,5.30
2022-11-30T01:28:07.066Z,5.32
2022-11-30T01:30:34.443Z,5.28
2022-11-30T01:33:05.178Z,6.18
2022-11-30T01:35:32.331Z,6.15
2022-11-30T01:37:59.470Z,6.28
2022-11-30T01:40:26.760Z,7.60
2022-11-30T01:42:53.945Z,8.88
2022-11-30T01:45:21.363Z,7.13
2022-11-30T01:47:54.354Z,9.25
2022-11-30T01:50:35.230Z,15.18
2022-11-30T01:53:03.646Z,13.93
2022-11-30T01:55:36.004Z,10.05
2022-11-30T01:58:08.567Z,13.32
2022-11-30T02:00:35.813Z,8.93
2022-11-30T02:03:23.432Z,10.38
2022-11-30T02:05:50.576Z,8.65
2022-11-30T02:08:19.241Z,7.38
2022-11-30T02:10:54.173Z,7.75
2022-11-30T02:13:42.187Z,8.00
2022-11-30T02:16:24.712Z,8.07
2022-11-30T02:19:13.697Z,7.35
2022-11-30T02:21:47.767Z,6.53
2022-11-30T02:26:53.846Z,6.68
2022-11-30T02:29:30.049Z,7.18
2022-11-30T02:32:12.680Z,7.38
2022-11-30T02:34:42.452Z,8.75
2022-11-30T02:37:11.932Z,8.45
2022-11-30T02:39:39.151Z,7.50
2022-11-30T02:42:13.082Z,8.48
2022-11-30T02:44:52.180Z,6.32
2022-11-30T02:47:22.391Z,7.53
2022-11-30T02:50:03.956Z,7.78
2022-11-30T02:52:32.498Z,7.22
2022-11-30T02:55:14.991Z,7.65
2022-11-30T02:57:42.296Z,6.90
2022-11-30T03:00:13.926Z,7.35
2022-11-30T03:02:41.624Z,7.53
2022-11-30T03:05:10.033Z,7.60
2022-11-30T03:07:37.777Z,6.30
2022-11-30T03:10:06.252Z,6.88
2022-11-30T03:12:33.549Z,6.35
2022-11-30T03:15:00.769Z,7.10
2022-11-30T03:17:28.358Z,7.10
2022-11-30T03:19:55.622Z,7.72
2022-11-30T03:22:22.739Z,8.27
2022-11-30T03:24:50.232Z,9.10
2022-11-30T03:27:17.587Z,8.82
2022-11-30T03:29:45.008Z,8.25
2022-11-30T03:32:12.236Z,7.45
2022-11-30T03:34:39.363Z,6.85
2022-11-30T03:37:06.582Z,6.80
2022-11-30T03:39:33.804Z,6.65
2022-11-30T03:42:00.952Z,6.78
2022-11-30T03:44:28.188Z,6.32
2022-11-30T03:46:55.359Z,7.15
2022-11-30T03:49:22.481Z,6.43
2022-11-30T03:51:49.754Z,8.02
2022-11-30T03:54:16.986Z,7.07
2022-11-30T03:56:44.107Z,8.77
2022-11-30T03:59:11.368Z,14.18
2022-11-30T04:01:41.240Z,21.85
2022-11-30T04:04:08.727Z,19.38
2022-11-30T04:06:35.979Z,8.00
2022-11-30T04:09:03.200Z,7.95
2022-11-30T04:11:30.515Z,8.30
2022-11-30T04:13:57.813Z,7.93
2022-11-30T04:16:25.098Z,7.45
2022-11-30T04:18:52.792Z,7.72
2022-11-30T04:21:19.926Z,7.13
2022-11-30T04:23:47.032Z,7.20
2022-11-30T04:26:16.629Z,8.15
2022-11-30T04:28:44.319Z,8.13
2022-11-30T04:31:12.100Z,8.45
2022-11-30T04:33:39.723Z,9.27
2022-11-30T04:36:08.221Z,11.65
2022-11-30T04:38:37.722Z,11.25
2022-11-30T04:41:09.152Z,12.20
2022-11-30T04:43:37.239Z,9.18
2022-11-30T04:46:05.711Z,15.38
2022-11-30T04:48:32.985Z,12.02
2022-11-30T04:51:06.273Z,9.82
2022-11-30T04:53:34.928Z,9.80
2022-11-30T04:56:12.419Z,8.93
2022-11-30T04:58:40.178Z,9.05
2022-11-30T05:01:10.929Z,9.35
2022-11-30T05:03:38.061Z,9.43
2022-11-30T05:06:05.797Z,9.10
2022-11-30T05:08:33.042Z,15.02
2022-11-30T05:11:00.212Z,11.95
2022-11-30T05:13:27.712Z,12.10
2022-11-30T05:15:54.941Z,18.65
2022-11-30T05:18:22.358Z,21.15
2022-11-30T05:20:51.282Z,18.85
2022-11-30T05:23:18.800Z,13.45
2022-11-30T05:25:46.702Z,13.85
2022-11-30T05:28:14.116Z,10.95
2022-11-30T05:30:42.611Z,21.05
2022-11-30T05:33:09.959Z,15.07
2022-11-30T05:35:37.524Z,10.30
2022-11-30T05:38:05.104Z,21.40
2022-11-30T05:40:33.812Z,16.40
2022-11-30T05:43:02.580Z,17.10
2022-11-30T05:45:30.482Z,15.15
2022-11-30T05:47:57.729Z,14.82
2022-11-30T05:50:24.976Z,22.85
2022-11-30T05:53:01.057Z,20.33
2022-11-30T05:55:30.073Z,16.65
2022-11-30T05:57:57.267Z,14.63
2022-11-30T06:00:24.601Z,14.65
2022-11-30T06:03:00.951Z,12.23
2022-11-30T06:05:28.758Z,9.35
2022-11-30T06:07:56.110Z,10.48
2022-11-30T06:10:25.487Z,11.75
2022-11-30T06:12:52.681Z,12.65
2022-11-30T06:15:19.858Z,11.63
2022-11-30T06:17:47.065Z,13.05
2022-11-30T06:20:14.647Z,11.57
2022-11-30T06:22:44.690Z,12.35
2022-11-30T06:25:11.769Z,11.07
2022-11-30T06:27:38.991Z,11.32
2022-11-30T06:30:06.863Z,12.13
2022-11-30T06:32:34.025Z,11.05
2022-11-30T06:35:01.183Z,11.45
2022-11-30T06:37:28.388Z,11.32
2022-11-30T06:40:06.579Z,11.85
2022-11-30T06:42:36.320Z,11.20
2022-11-30T06:45:04.002Z,10.00
2022-11-30T06:47:31.167Z,12.00
2022-11-30T06:49:58.372Z,9.43
2022-11-30T06:52:26.077Z,10.35
2022-11-30T06:54:53.246Z,10.48
2022-11-30T06:57:20.406Z,9.32
2022-11-30T06:59:47.740Z,10.13
2022-11-30T07:02:18.591Z,10.07
2022-11-30T07:04:47.020Z,9.60
2022-11-30T07:07:14.619Z,9.50
2022-11-30T07:09:41.884Z,9.38
2022-11-30T07:12:09.353Z,10.43
2022-11-30T07:14:36.571Z,10.57
2022-11-30T07:17:04.900Z,10.50
2022-11-30T07:19:34.736Z,10.73
2022-11-30T07:22:02.317Z,10.32
2022-11-30T07:24:48.489Z,10.32
2022-11-30T07:27:15.906Z,15.20
2022-11-30T07:29:43.119Z,13.27
2022-11-30T07:32:10.341Z,14.63
2022-11-30T07:34:37.603Z,13.27
2022-11-30T07:37:04.750Z,9.40
2022-11-30T07:39:32.046Z,10.70
2022-11-30T07:41:59.277Z,11.57
2022-11-30T07:44:26.509Z,10.52
2022-11-30T07:46:53.747Z,9.88
2022-11-30T07:49:20.965Z,9.77
2022-11-30T07:51:48.184Z,9.50
2022-11-30T07:54:15.446Z,8.70
2022-11-30T07:56:42.688Z,10.00
2022-11-30T07:59:10.405Z,9.48
2022-11-30T08:01:37.870Z,9.40
2022-11-30T08:04:05.393Z,10.55
2022-11-30T08:06:32.839Z,9.75
2022-11-30T08:09:02.868Z,9.05
2022-11-30T08:11:32.926Z,9.45
2022-11-30T08:14:01.289Z,8.90
2022-11-30T08:16:30.358Z,9.77
2022-11-30T08:18:58.592Z,8.88
2022-11-30T08:21:25.865Z,10.18
2022-11-30T08:23:57.142Z,9.82
2022-11-30T08:26:30.462Z,9.80
2022-11-30T08:28:59.199Z,8.67
2022-11-30T08:31:28.064Z,10.20
2022-11-30T08:34:00.357Z,8.45
2022-11-30T08:36:29.374Z,8.25
2022-11-30T08:38:59.178Z,10.50
2022-11-30T08:41:27.216Z,9.75
2022-11-30T08:43:54.786Z,9.15
2022-11-30T08:49:26.066Z,9.32
2022-11-30T08:54:48.045Z,9.52
2022-11-30T08:57:17.856Z,9.43
2022-11-30T08:59:45.504Z,9.23
2022-11-30T09:02:17.188Z,8.70
2022-11-30T09:04:44.639Z,9.55
2022-11-30T09:07:12.339Z,10.45
2022-11-30T09:09:40.605Z,8.55
2022-11-30T09:12:08.877Z,9.65
2022-11-30T09:14:37.200Z,8.95
2022-11-30T09:17:05.113Z,9.70
2022-11-30T09:19:32.543Z,10.02
2022-11-30T09:22:00.805Z,9.13
2022-11-30T09:24:27.977Z,9.85
2022-11-30T09:26:58.195Z,9.82
2022-11-30T09:29:25.458Z,9.55
2022-11-30T09:31:52.861Z,8.75
2022-11-30T09:34:20.130Z,9.05
2022-11-30T09:36:50.104Z,9.75
2022-11-30T09:39:17.219Z,9.68
2022-11-30T09:41:56.501Z,8.73
2022-11-30T09:44:35.675Z,9.75
2022-11-30T09:47:08.593Z,9.70
2022-11-30T09:49:46.241Z,8.90
2022-11-30T09:52:19.163Z,9.23
2022-11-30T09:54:48.326Z,9.27
2022-11-30T09:57:30.613Z,8.45
2022-11-30T10:00:06.920Z,12.50
2022-11-30T10:02:38.630Z,14.98
2022-11-30T10:05:18.151Z,18.15
2022-11-30T10:08:12.282Z,19.25
2022-11-30T10:10:40.772Z,15.13
2022-11-30T10:13:07.924Z,21.48
2022-11-30T10:15:54.971Z,18.15
2022-11-30T10:18:59.515Z,13.68
2022-11-30T10:21:42.712Z,9.77
2022-11-30T10:24:47.446Z,14.05
2022-11-30T10:27:26.897Z,18.60
2022-11-30T10:29:55.855Z,9.32
2022-11-30T10:32:33.465Z,14.07
2022-11-30T10:35:18.183Z,17.95
2022-11-30T10:37:47.196Z,19.05
2022-11-30T10:40:21.258Z,14.18
2022-11-30T10:43:28.767Z,15.52
2022-11-30T10:45:56.465Z,10.80
2022-11-30T10:48:41.511Z,13.63
2022-11-30T10:51:10.934Z,23.05
2022-11-30T10:53:38.299Z,32.17
2022-11-30T10:56:15.671Z,9.80
2022-11-30T10:59:04.165Z,8.45
2022-11-30T11:01:37.415Z,8.63
2022-11-30T11:04:17.731Z,8.93
2022-11-30T11:07:10.460Z,9.13
2022-11-30T11:09:42.433Z,10.45
2022-11-30T11:12:27.778Z,8.00
2022-11-30T11:15:21.427Z,11.63
2022-11-30T11:17:49.781Z,12.32
